X  CloseMetar Aviation Weather Data     YPAD Adelaide International

Temperature

11°C Temperature

9°C Dewpoint

88% Humidity



Wind

10 KM/H

 6 MPH

 3 M/S

 5 KTS



70°
East North
East
Current Conditions

Partly Cloudy Partly Cloudy
Pressure 1019.92 (hPa) - 30.12 (in)
Visibility 6.2 (mi) - 10 (km)
Airport
Airport-code YPAD

Location Adelaide International 20 (km)

Metar:
YPAD 222000Z 07005KT 9999 FEW025 11/09 Q1020 FM2200 23012KT 9999 SCT035

Time: 23-11-2019 6:30